sensor_id;sensor_type;location;lat;lon;timestamp;P1;durP1;ratioP1;P2;durP2;ratioP2
21175;SDS011;10746;50.178;8.186;2023-06-04T00:01:42;1.83;;;1.73;;
21175;SDS011;10746;50.178;8.186;2023-06-04T00:04:10;3.22;;;1.88;;
21175;SDS011;10746;50.178;8.186;2023-06-04T00:06:37;2.00;;;1.90;;
21175;SDS011;10746;50.178;8.186;2023-06-04T00:09:04;2.33;;;1.73;;
21175;SDS011;10746;50.178;8.186;2023-06-04T00:11:30;3.28;;;1.92;;
21175;SDS011;10746;50.178;8.186;2023-06-04T00:14:00;2.17;;;1.85;;
21175;SDS011;10746;50.178;8.186;2023-06-04T00:16:27;5.18;;;1.80;;
21175;SDS011;10746;50.178;8.186;2023-06-04T00:18:53;1.80;;;1.70;;
21175;SDS011;10746;50.178;8.186;2023-06-04T00:21:21;3.33;;;1.80;;
21175;SDS011;10746;50.178;8.186;2023-06-04T00:23:47;2.75;;;1.80;;
21175;SDS011;10746;50.178;8.186;2023-06-04T00:26:14;1.88;;;1.70;;
21175;SDS011;10746;50.178;8.186;2023-06-04T00:28:41;2.10;;;1.90;;
21175;SDS011;10746;50.178;8.186;2023-06-04T00:31:09;2.85;;;1.90;;
21175;SDS011;10746;50.178;8.186;2023-06-04T00:33:37;2.58;;;1.77;;
21175;SDS011;10746;50.178;8.186;2023-06-04T00:36:05;10.25;;;1.90;;
21175;SDS011;10746;50.178;8.186;2023-06-04T00:38:32;2.83;;;1.83;;
21175;SDS011;10746;50.178;8.186;2023-06-04T00:40:59;2.45;;;1.88;;
21175;SDS011;10746;50.178;8.186;2023-06-04T00:43:25;2.72;;;1.63;;
21175;SDS011;10746;50.178;8.186;2023-06-04T00:45:52;3.50;;;1.83;;
21175;SDS011;10746;50.178;8.186;2023-06-04T00:48:21;3.03;;;1.88;;
21175;SDS011;10746;50.178;8.186;2023-06-04T00:50:49;4.43;;;2.13;;
21175;SDS011;10746;50.178;8.186;2023-06-04T00:53:17;6.43;;;2.03;;
21175;SDS011;10746;50.178;8.186;2023-06-04T00:55:43;5.25;;;1.92;;
21175;SDS011;10746;50.178;8.186;2023-06-04T00:58:10;5.88;;;2.85;;
21175;SDS011;10746;50.178;8.186;2023-06-04T01:00:38;2.55;;;2.13;;
21175;SDS011;10746;50.178;8.186;2023-06-04T01:03:07;2.17;;;1.98;;
21175;SDS011;10746;50.178;8.186;2023-06-04T01:05:41;3.90;;;1.90;;
21175;SDS011;10746;50.178;8.186;2023-06-04T01:08:14;2.17;;;1.92;;
21175;SDS011;10746;50.178;8.186;2023-06-04T01:10:49;2.05;;;1.85;;
21175;SDS011;10746;50.178;8.186;2023-06-04T01:13:17;2.78;;;1.92;;
21175;SDS011;10746;50.178;8.186;2023-06-04T01:15:44;5.47;;;2.88;;
21175;SDS011;10746;50.178;8.186;2023-06-04T01:18:11;3.03;;;1.83;;
21175;SDS011;10746;50.178;8.186;2023-06-04T01:20:50;1.90;;;1.77;;
21175;SDS011;10746;50.178;8.186;2023-06-04T01:23:21;4.28;;;2.08;;
21175;SDS011;10746;50.178;8.186;2023-06-04T01:29:21;2.40;;;1.92;;
21175;SDS011;10746;50.178;8.186;2023-06-04T01:31:49;3.15;;;2.00;;
21175;SDS011;10746;50.178;8.186;2023-06-04T01:34:17;2.58;;;2.25;;
21175;SDS011;10746;50.178;8.186;2023-06-04T01:36:45;2.80;;;1.88;;
21175;SDS011;10746;50.178;8.186;2023-06-04T01:39:12;2.80;;;1.80;;
21175;SDS011;10746;50.178;8.186;2023-06-04T01:41:39;2.10;;;1.88;;
21175;SDS011;10746;50.178;8.186;2023-06-04T01:44:05;1.75;;;1.65;;
21175;SDS011;10746;50.178;8.186;2023-06-04T01:46:32;3.40;;;1.95;;
21175;SDS011;10746;50.178;8.186;2023-06-04T01:48:59;3.00;;;2.20;;
21175;SDS011;10746;50.178;8.186;2023-06-04T01:51:25;4.47;;;2.05;;
21175;SDS011;10746;50.178;8.186;2023-06-04T01:53:53;2.47;;;2.20;;
21175;SDS011;10746;50.178;8.186;2023-06-04T01:56:20;3.95;;;2.20;;
21175;SDS011;10746;50.178;8.186;2023-06-04T01:58:47;7.43;;;2.13;;
21175;SDS011;10746;50.178;8.186;2023-06-04T02:01:13;3.03;;;2.08;;
21175;SDS011;10746;50.178;8.186;2023-06-04T02:03:42;5.78;;;2.15;;
21175;SDS011;10746;50.178;8.186;2023-06-04T02:06:09;2.92;;;2.00;;
21175;SDS011;10746;50.178;8.186;2023-06-04T02:08:36;2.67;;;2.05;;
21175;SDS011;10746;50.178;8.186;2023-06-04T02:11:04;2.05;;;1.88;;
21175;SDS011;10746;50.178;8.186;2023-06-04T02:13:31;2.30;;;2.10;;
21175;SDS011;10746;50.178;8.186;2023-06-04T02:15:58;2.00;;;1.90;;
21175;SDS011;10746;50.178;8.186;2023-06-04T02:18:24;3.13;;;2.10;;
21175;SDS011;10746;50.178;8.186;2023-06-04T02:20:52;2.95;;;2.25;;
21175;SDS011;10746;50.178;8.186;2023-06-04T02:23:19;3.20;;;2.03;;
21175;SDS011;10746;50.178;8.186;2023-06-04T02:25:46;3.25;;;2.47;;
21175;SDS011;10746;50.178;8.186;2023-06-04T02:28:15;3.15;;;2.10;;
21175;SDS011;10746;50.178;8.186;2023-06-04T02:30:43;3.03;;;1.85;;
21175;SDS011;10746;50.178;8.186;2023-06-04T02:33:11;2.20;;;2.10;;
21175;SDS011;10746;50.178;8.186;2023-06-04T02:35:38;2.63;;;2.15;;
21175;SDS011;10746;50.178;8.186;2023-06-04T02:38:04;3.28;;;2.00;;
21175;SDS011;10746;50.178;8.186;2023-06-04T02:40:31;5.78;;;2.10;;
21175;SDS011;10746;50.178;8.186;2023-06-04T02:42:58;3.47;;;1.95;;
21175;SDS011;10746;50.178;8.186;2023-06-04T02:45:26;3.80;;;1.85;;
21175;SDS011;10746;50.178;8.186;2023-06-04T02:47:53;3.60;;;1.90;;
21175;SDS011;10746;50.178;8.186;2023-06-04T02:50:20;2.00;;;1.90;;
21175;SDS011;10746;50.178;8.186;2023-06-04T02:52:47;2.53;;;2.00;;
21175;SDS011;10746;50.178;8.186;2023-06-04T02:55:14;1.90;;;1.80;;
21175;SDS011;10746;50.178;8.186;2023-06-04T02:57:41;3.17;;;2.40;;
21175;SDS011;10746;50.178;8.186;2023-06-04T03:00:08;2.40;;;2.20;;
21175;SDS011;10746;50.178;8.186;2023-06-04T03:02:39;4.25;;;2.13;;
21175;SDS011;10746;50.178;8.186;2023-06-04T03:05:07;3.47;;;2.40;;
21175;SDS011;10746;50.178;8.186;2023-06-04T03:07:38;2.37;;;1.90;;
21175;SDS011;10746;50.178;8.186;2023-06-04T03:10:06;3.20;;;2.30;;
21175;SDS011;10746;50.178;8.186;2023-06-04T03:12:33;2.37;;;2.10;;
21175;SDS011;10746;50.178;8.186;2023-06-04T03:15:00;2.60;;;2.17;;
21175;SDS011;10746;50.178;8.186;2023-06-04T03:17:27;3.70;;;2.22;;
21175;SDS011;10746;50.178;8.186;2023-06-04T03:19:55;8.03;;;2.50;;
21175;SDS011;10746;50.178;8.186;2023-06-04T03:22:22;3.80;;;2.40;;
21175;SDS011;10746;50.178;8.186;2023-06-04T03:24:49;4.07;;;2.30;;
21175;SDS011;10746;50.178;8.186;2023-06-04T03:27:17;8.23;;;2.20;;
21175;SDS011;10746;50.178;8.186;2023-06-04T03:29:44;3.03;;;2.53;;
21175;SDS011;10746;50.178;8.186;2023-06-04T03:32:11;2.70;;;2.35;;
21175;SDS011;10746;50.178;8.186;2023-06-04T03:34:38;3.33;;;2.37;;
21175;SDS011;10746;50.178;8.186;2023-06-04T03:37:07;3.57;;;2.20;;
21175;SDS011;10746;50.178;8.186;2023-06-04T03:39:33;4.63;;;2.40;;
21175;SDS011;10746;50.178;8.186;2023-06-04T03:42:00;3.27;;;2.43;;
21175;SDS011;10746;50.178;8.186;2023-06-04T03:44:27;2.40;;;2.20;;
21175;SDS011;10746;50.178;8.186;2023-06-04T03:46:54;3.70;;;2.70;;
21175;SDS011;10746;50.178;8.186;2023-06-04T03:49:21;4.13;;;2.33;;
21175;SDS011;10746;50.178;8.186;2023-06-04T03:51:48;3.00;;;2.70;;
21175;SDS011;10746;50.178;8.186;2023-06-04T03:54:16;2.73;;;2.50;;
21175;SDS011;10746;50.178;8.186;2023-06-04T03:56:43;4.60;;;2.73;;
21175;SDS011;10746;50.178;8.186;2023-06-04T03:59:10;5.73;;;2.37;;
21175;SDS011;10746;50.178;8.186;2023-06-04T04:01:37;2.80;;;2.10;;
21175;SDS011;10746;50.178;8.186;2023-06-04T04:04:04;3.20;;;2.20;;
21175;SDS011;10746;50.178;8.186;2023-06-04T04:06:31;3.60;;;2.30;;
21175;SDS011;10746;50.178;8.186;2023-06-04T04:08:58;3.15;;;2.10;;
21175;SDS011;10746;50.178;8.186;2023-06-04T04:11:26;4.45;;;2.30;;
21175;SDS011;10746;50.178;8.186;2023-06-04T04:13:53;2.20;;;2.00;;
21175;SDS011;10746;50.178;8.186;2023-06-04T04:16:19;4.93;;;2.70;;
21175;SDS011;10746;50.178;8.186;2023-06-04T04:18:46;3.23;;;2.50;;
21175;SDS011;10746;50.178;8.186;2023-06-04T04:21:13;2.40;;;2.08;;
21175;SDS011;10746;50.178;8.186;2023-06-04T04:23:39;2.88;;;2.20;;
21175;SDS011;10746;50.178;8.186;2023-06-04T04:26:07;3.05;;;2.60;;
21175;SDS011;10746;50.178;8.186;2023-06-04T04:28:36;5.35;;;2.40;;
21175;SDS011;10746;50.178;8.186;2023-06-04T04:31:03;2.35;;;2.20;;
21175;SDS011;10746;50.178;8.186;2023-06-04T04:33:31;3.95;;;2.60;;
21175;SDS011;10746;50.178;8.186;2023-06-04T04:36:01;4.45;;;2.33;;
21175;SDS011;10746;50.178;8.186;2023-06-04T04:38:28;8.10;;;2.58;;
21175;SDS011;10746;50.178;8.186;2023-06-04T04:40:58;3.88;;;2.65;;
21175;SDS011;10746;50.178;8.186;2023-06-04T04:43:28;3.03;;;2.33;;
21175;SDS011;10746;50.178;8.186;2023-06-04T04:45:57;4.53;;;2.35;;
21175;SDS011;10746;50.178;8.186;2023-06-04T04:48:24;3.43;;;2.27;;
21175;SDS011;10746;50.178;8.186;2023-06-04T04:50:51;4.15;;;2.33;;
21175;SDS011;10746;50.178;8.186;2023-06-04T04:53:18;4.70;;;2.20;;
21175;SDS011;10746;50.178;8.186;2023-06-04T04:55:45;2.97;;;2.30;;
21175;SDS011;10746;50.178;8.186;2023-06-04T04:58:12;2.92;;;2.42;;
21175;SDS011;10746;50.178;8.186;2023-06-04T05:00:39;3.15;;;2.20;;
21175;SDS011;10746;50.178;8.186;2023-06-04T05:03:07;2.38;;;2.22;;
21175;SDS011;10746;50.178;8.186;2023-06-04T05:05:34;2.55;;;2.22;;
21175;SDS011;10746;50.178;8.186;2023-06-04T05:08:00;3.20;;;2.70;;
21175;SDS011;10746;50.178;8.186;2023-06-04T05:10:27;3.33;;;2.33;;
21175;SDS011;10746;50.178;8.186;2023-06-04T05:12:54;4.50;;;2.40;;
21175;SDS011;10746;50.178;8.186;2023-06-04T05:15:22;2.38;;;2.17;;
21175;SDS011;10746;50.178;8.186;2023-06-04T05:17:49;2.67;;;2.33;;
21175;SDS011;10746;50.178;8.186;2023-06-04T05:20:18;3.95;;;2.40;;
21175;SDS011;10746;50.178;8.186;2023-06-04T05:22:46;2.42;;;1.98;;
21175;SDS011;10746;50.178;8.186;2023-06-04T05:25:13;4.22;;;2.60;;
21175;SDS011;10746;50.178;8.186;2023-06-04T05:27:40;4.90;;;2.35;;
21175;SDS011;10746;50.178;8.186;2023-06-04T05:30:08;3.33;;;2.20;;
21175;SDS011;10746;50.178;8.186;2023-06-04T05:32:36;5.32;;;2.30;;
21175;SDS011;10746;50.178;8.186;2023-06-04T05:35:06;4.00;;;2.38;;
21175;SDS011;10746;50.178;8.186;2023-06-04T05:37:35;2.30;;;2.10;;
21175;SDS011;10746;50.178;8.186;2023-06-04T05:40:05;3.15;;;2.13;;
21175;SDS011;10746;50.178;8.186;2023-06-04T05:42:33;2.63;;;1.75;;
21175;SDS011;10746;50.178;8.186;2023-06-04T05:45:00;2.05;;;1.95;;
21175;SDS011;10746;50.178;8.186;2023-06-04T05:47:27;2.53;;;1.83;;
21175;SDS011;10746;50.178;8.186;2023-06-04T05:49:55;2.78;;;2.15;;
21175;SDS011;10746;50.178;8.186;2023-06-04T05:52:21;2.00;;;1.90;;
21175;SDS011;10746;50.178;8.186;2023-06-04T05:54:50;1.90;;;1.80;;
21175;SDS011;10746;50.178;8.186;2023-06-04T05:57:16;2.15;;;2.00;;
21175;SDS011;10746;50.178;8.186;2023-06-04T05:59:43;5.05;;;2.00;;
21175;SDS011;10746;50.178;8.186;2023-06-04T06:02:10;5.95;;;2.00;;
21175;SDS011;10746;50.178;8.186;2023-06-04T06:04:37;3.97;;;2.40;;
21175;SDS011;10746;50.178;8.186;2023-06-04T06:07:04;4.40;;;2.17;;
21175;SDS011;10746;50.178;8.186;2023-06-04T06:09:31;2.65;;;1.98;;
21175;SDS011;10746;50.178;8.186;2023-06-04T06:11:59;4.63;;;1.90;;
21175;SDS011;10746;50.178;8.186;2023-06-04T06:14:25;1.95;;;1.80;;
21175;SDS011;10746;50.178;8.186;2023-06-04T06:16:52;2.63;;;1.73;;
21175;SDS011;10746;50.178;8.186;2023-06-04T06:19:19;5.25;;;1.88;;
21175;SDS011;10746;50.178;8.186;2023-06-04T06:21:45;7.88;;;2.25;;
21175;SDS011;10746;50.178;8.186;2023-06-04T06:24:12;4.88;;;1.75;;
21175;SDS011;10746;50.178;8.186;2023-06-04T06:26:39;2.03;;;1.60;;
21175;SDS011;10746;50.178;8.186;2023-06-04T06:29:07;4.18;;;1.50;;
21175;SDS011;10746;50.178;8.186;2023-06-04T06:31:34;3.30;;;1.73;;
21175;SDS011;10746;50.178;8.186;2023-06-04T06:34:00;2.70;;;1.65;;
21175;SDS011;10746;50.178;8.186;2023-06-04T06:36:27;3.60;;;1.60;;
21175;SDS011;10746;50.178;8.186;2023-06-04T06:38:54;6.45;;;1.90;;
21175;SDS011;10746;50.178;8.186;2023-06-04T06:41:21;2.13;;;1.70;;
21175;SDS011;10746;50.178;8.186;2023-06-04T06:43:47;1.65;;;1.50;;
21175;SDS011;10746;50.178;8.186;2023-06-04T06:46:17;3.42;;;1.95;;
21175;SDS011;10746;50.178;8.186;2023-06-04T06:48:43;2.17;;;1.88;;
21175;SDS011;10746;50.178;8.186;2023-06-04T06:51:10;1.65;;;1.55;;
21175;SDS011;10746;50.178;8.186;2023-06-04T06:53:37;2.35;;;1.60;;
21175;SDS011;10746;50.178;8.186;2023-06-04T06:56:04;5.38;;;1.95;;
21175;SDS011;10746;50.178;8.186;2023-06-04T06:58:31;1.95;;;1.73;;
21175;SDS011;10746;50.178;8.186;2023-06-04T07:00:58;1.75;;;1.55;;
21175;SDS011;10746;50.178;8.186;2023-06-04T07:03:26;2.05;;;1.60;;
21175;SDS011;10746;50.178;8.186;2023-06-04T07:05:53;3.17;;;1.98;;
21175;SDS011;10746;50.178;8.186;2023-06-04T07:08:20;1.67;;;1.58;;
21175;SDS011;10746;50.178;8.186;2023-06-04T07:10:47;4.05;;;1.90;;
21175;SDS011;10746;50.178;8.186;2023-06-04T07:13:14;7.20;;;1.73;;
21175;SDS011;10746;50.178;8.186;2023-06-04T07:15:41;7.18;;;1.70;;
21175;SDS011;10746;50.178;8.186;2023-06-04T07:18:08;3.05;;;1.95;;
21175;SDS011;10746;50.178;8.186;2023-06-04T07:20:36;3.45;;;1.73;;
21175;SDS011;10746;50.178;8.186;2023-06-04T07:23:03;1.70;;;1.58;;
21175;SDS011;10746;50.178;8.186;2023-06-04T07:25:29;2.78;;;1.60;;
21175;SDS011;10746;50.178;8.186;2023-06-04T07:27:56;3.92;;;1.52;;
21175;SDS011;10746;50.178;8.186;2023-06-04T07:30:23;3.85;;;1.60;;
21175;SDS011;10746;50.178;8.186;2023-06-04T07:32:50;4.53;;;1.70;;
21175;SDS011;10746;50.178;8.186;2023-06-04T07:35:17;5.75;;;1.60;;
21175;SDS011;10746;50.178;8.186;2023-06-04T07:37:45;3.80;;;1.80;;
21175;SDS011;10746;50.178;8.186;2023-06-04T07:40:14;1.70;;;1.60;;
21175;SDS011;10746;50.178;8.186;2023-06-04T07:42:41;1.48;;;1.38;;
21175;SDS011;10746;50.178;8.186;2023-06-04T07:45:08;2.55;;;1.83;;
21175;SDS011;10746;50.178;8.186;2023-06-04T07:47:36;4.35;;;1.75;;
21175;SDS011;10746;50.178;8.186;2023-06-04T07:50:02;2.55;;;1.48;;
21175;SDS011;10746;50.178;8.186;2023-06-04T07:52:30;1.75;;;1.65;;
21175;SDS011;10746;50.178;8.186;2023-06-04T07:54:58;1.83;;;1.42;;
21175;SDS011;10746;50.178;8.186;2023-06-04T07:57:26;2.70;;;1.50;;
21175;SDS011;10746;50.178;8.186;2023-06-04T07:59:53;1.85;;;1.52;;
21175;SDS011;10746;50.178;8.186;2023-06-04T08:02:19;2.08;;;1.50;;
21175;SDS011;10746;50.178;8.186;2023-06-04T08:04:46;2.35;;;1.80;;
21175;SDS011;10746;50.178;8.186;2023-06-04T08:07:13;2.25;;;1.50;;
21175;SDS011;10746;50.178;8.186;2023-06-04T08:09:39;3.03;;;1.40;;
21175;SDS011;10746;50.178;8.186;2023-06-04T08:12:08;2.83;;;1.52;;
21175;SDS011;10746;50.178;8.186;2023-06-04T08:14:35;5.53;;;1.70;;
21175;SDS011;10746;50.178;8.186;2023-06-04T08:17:01;7.25;;;1.88;;
21175;SDS011;10746;50.178;8.186;2023-06-04T08:19:28;3.63;;;1.65;;
21175;SDS011;10746;50.178;8.186;2023-06-04T08:21:55;3.70;;;1.30;;
21175;SDS011;10746;50.178;8.186;2023-06-04T08:24:22;3.33;;;1.58;;
21175;SDS011;10746;50.178;8.186;2023-06-04T08:26:48;2.70;;;1.42;;
21175;SDS011;10746;50.178;8.186;2023-06-04T08:29:18;2.95;;;1.40;;
21175;SDS011;10746;50.178;8.186;2023-06-04T08:31:45;1.48;;;1.38;;
21175;SDS011;10746;50.178;8.186;2023-06-04T08:34:12;3.97;;;1.40;;
21175;SDS011;10746;50.178;8.186;2023-06-04T08:36:38;2.88;;;1.42;;
21175;SDS011;10746;50.178;8.186;2023-06-04T08:39:05;3.55;;;1.45;;
21175;SDS011;10746;50.178;8.186;2023-06-04T08:41:34;2.33;;;1.40;;
21175;SDS011;10746;50.178;8.186;2023-06-04T08:44:06;1.90;;;1.80;;
21175;SDS011;10746;50.178;8.186;2023-06-04T08:46:34;2.65;;;1.40;;
21175;SDS011;10746;50.178;8.186;2023-06-04T08:49:05;3.17;;;1.30;;
21175;SDS011;10746;50.178;8.186;2023-06-04T08:51:33;1.50;;;1.40;;
21175;SDS011;10746;50.178;8.186;2023-06-04T08:54:02;2.90;;;1.30;;
21175;SDS011;10746;50.178;8.186;2023-06-04T08:56:30;1.40;;;1.30;;
21175;SDS011;10746;50.178;8.186;2023-06-04T08:58:59;1.50;;;1.40;;
21175;SDS011;10746;50.178;8.186;2023-06-04T09:01:27;3.63;;;1.33;;
21175;SDS011;10746;50.178;8.186;2023-06-04T09:03:55;3.10;;;1.63;;
21175;SDS011;10746;50.178;8.186;2023-06-04T09:06:23;2.10;;;1.33;;
21175;SDS011;10746;50.178;8.186;2023-06-04T09:08:51;3.20;;;1.40;;
21175;SDS011;10746;50.178;8.186;2023-06-04T09:11:19;1.55;;;1.40;;
21175;SDS011;10746;50.178;8.186;2023-06-04T09:13:47;2.80;;;1.30;;
21175;SDS011;10746;50.178;8.186;2023-06-04T09:16:15;2.83;;;1.40;;
21175;SDS011;10746;50.178;8.186;2023-06-04T09:18:42;5.22;;;1.50;;
21175;SDS011;10746;50.178;8.186;2023-06-04T09:21:12;2.70;;;1.58;;
21175;SDS011;10746;50.178;8.186;2023-06-04T09:23:43;4.00;;;1.50;;
21175;SDS011;10746;50.178;8.186;2023-06-04T09:26:10;1.95;;;1.50;;
21175;SDS011;10746;50.178;8.186;2023-06-04T09:28:39;2.17;;;1.45;;
21175;SDS011;10746;50.178;8.186;2023-06-04T09:31:07;4.80;;;1.48;;
21175;SDS011;10746;50.178;8.186;2023-06-04T09:33:44;1.48;;;1.38;;
21175;SDS011;10746;50.178;8.186;2023-06-04T09:36:13;5.78;;;1.67;;
21175;SDS011;10746;50.178;8.186;2023-06-04T09:38:40;1.40;;;1.30;;
21175;SDS011;10746;50.178;8.186;2023-06-04T09:41:11;2.80;;;1.45;;
21175;SDS011;10746;50.178;8.186;2023-06-04T09:43:38;3.70;;;1.52;;
21175;SDS011;10746;50.178;8.186;2023-06-04T09:46:11;3.30;;;1.52;;
21175;SDS011;10746;50.178;8.186;2023-06-04T09:48:38;1.50;;;1.40;;
21175;SDS011;10746;50.178;8.186;2023-06-04T09:51:06;5.35;;;1.55;;
21175;SDS011;10746;50.178;8.186;2023-06-04T09:53:35;1.70;;;1.55;;
21175;SDS011;10746;50.178;8.186;2023-06-04T09:56:03;4.07;;;1.70;;
21175;SDS011;10746;50.178;8.186;2023-06-04T09:58:31;1.40;;;1.38;;
21175;SDS011;10746;50.178;8.186;2023-06-04T10:00:59;1.10;;;1.10;;
21175;SDS011;10746;50.178;8.186;2023-06-04T10:03:29;4.57;;;1.25;;
21175;SDS011;10746;50.178;8.186;2023-06-04T10:05:58;2.00;;;1.50;;
21175;SDS011;10746;50.178;8.186;2023-06-04T10:08:26;1.30;;;1.23;;
21175;SDS011;10746;50.178;8.186;2023-06-04T10:10:55;1.55;;;1.45;;
21175;SDS011;10746;50.178;8.186;2023-06-04T10:13:26;4.32;;;1.40;;
21175;SDS011;10746;50.178;8.186;2023-06-04T10:15:55;4.75;;;1.60;;
21175;SDS011;10746;50.178;8.186;2023-06-04T10:18:23;2.70;;;1.40;;
21175;SDS011;10746;50.178;8.186;2023-06-04T10:20:52;2.00;;;1.50;;
21175;SDS011;10746;50.178;8.186;2023-06-04T10:23:20;1.50;;;1.40;;
21175;SDS011;10746;50.178;8.186;2023-06-04T10:25:48;3.15;;;1.48;;
21175;SDS011;10746;50.178;8.186;2023-06-04T10:28:18;2.08;;;1.65;;
21175;SDS011;10746;50.178;8.186;2023-06-04T10:30:45;2.53;;;1.50;;
21175;SDS011;10746;50.178;8.186;2023-06-04T10:33:12;1.63;;;1.52;;
21175;SDS011;10746;50.178;8.186;2023-06-04T10:35:40;2.42;;;1.40;;
21175;SDS011;10746;50.178;8.186;2023-06-04T10:38:09;4.10;;;1.38;;
21175;SDS011;10746;50.178;8.186;2023-06-04T10:40:37;2.28;;;1.55;;
21175;SDS011;10746;50.178;8.186;2023-06-04T10:43:04;2.33;;;1.80;;
21175;SDS011;10746;50.178;8.186;2023-06-04T10:45:33;1.73;;;1.40;;
21175;SDS011;10746;50.178;8.186;2023-06-04T10:48:00;1.65;;;1.30;;
21175;SDS011;10746;50.178;8.186;2023-06-04T10:50:28;2.40;;;1.48;;
21175;SDS011;10746;50.178;8.186;2023-06-04T10:52:55;3.53;;;1.58;;
21175;SDS011;10746;50.178;8.186;2023-06-04T10:55:23;2.30;;;1.70;;
21175;SDS011;10746;50.178;8.186;2023-06-04T10:57:51;2.10;;;1.55;;
21175;SDS011;10746;50.178;8.186;2023-06-04T11:00:18;1.90;;;1.65;;
21175;SDS011;10746;50.178;8.186;2023-06-04T11:02:54;3.38;;;1.58;;
21175;SDS011;10746;50.178;8.186;2023-06-04T11:05:21;1.50;;;1.48;;
21175;SDS011;10746;50.178;8.186;2023-06-04T11:07:49;2.03;;;1.67;;
21175;SDS011;10746;50.178;8.186;2023-06-04T11:10:16;1.95;;;1.65;;
21175;SDS011;10746;50.178;8.186;2023-06-04T11:12:44;2.30;;;1.60;;
21175;SDS011;10746;50.178;8.186;2023-06-04T11:15:11;3.13;;;1.60;;
21175;SDS011;10746;50.178;8.186;2023-06-04T11:17:37;4.03;;;1.58;;
21175;SDS011;10746;50.178;8.186;2023-06-04T11:20:17;1.70;;;1.60;;
21175;SDS011;10746;50.178;8.186;2023-06-04T11:22:49;1.88;;;1.75;;
21175;SDS011;10746;50.178;8.186;2023-06-04T11:25:20;2.75;;;1.50;;
21175;SDS011;10746;50.178;8.186;2023-06-04T11:27:47;2.17;;;1.63;;
21175;SDS011;10746;50.178;8.186;2023-06-04T11:30:15;2.60;;;1.60;;
21175;SDS011;10746;50.178;8.186;2023-06-04T11:32:42;3.17;;;1.65;;
21175;SDS011;10746;50.178;8.186;2023-06-04T11:35:09;8.88;;;1.65;;
21175;SDS011;10746;50.178;8.186;2023-06-04T11:37:38;3.00;;;1.80;;
21175;SDS011;10746;50.178;8.186;2023-06-04T11:40:14;3.78;;;1.60;;
21175;SDS011;10746;50.178;8.186;2023-06-04T11:42:42;1.67;;;1.58;;
21175;SDS011;10746;50.178;8.186;2023-06-04T11:45:10;3.65;;;1.55;;
21175;SDS011;10746;50.178;8.186;2023-06-04T11:47:36;8.82;;;1.75;;
21175;SDS011;10746;50.178;8.186;2023-06-04T11:50:04;3.42;;;1.60;;
21175;SDS011;10746;50.178;8.186;2023-06-04T11:52:33;3.55;;;1.50;;
21175;SDS011;10746;50.178;8.186;2023-06-04T11:55:01;1.48;;;1.30;;
21175;SDS011;10746;50.178;8.186;2023-06-04T11:57:27;1.70;;;1.30;;
21175;SDS011;10746;50.178;8.186;2023-06-04T11:59:55;1.65;;;1.52;;
21175;SDS011;10746;50.178;8.186;2023-06-04T12:02:22;2.22;;;1.35;;
21175;SDS011;10746;50.178;8.186;2023-06-04T12:04:49;2.10;;;1.48;;
21175;SDS011;10746;50.178;8.186;2023-06-04T12:07:19;1.75;;;1.63;;
21175;SDS011;10746;50.178;8.186;2023-06-04T12:09:49;1.42;;;1.40;;
21175;SDS011;10746;50.178;8.186;2023-06-04T12:12:21;1.73;;;1.52;;
21175;SDS011;10746;50.178;8.186;2023-06-04T12:14:55;6.53;;;1.65;;
21175;SDS011;10746;50.178;8.186;2023-06-04T12:17:23;1.30;;;1.30;;
21175;SDS011;10746;50.178;8.186;2023-06-04T12:19:50;2.40;;;1.50;;
21175;SDS011;10746;50.178;8.186;2023-06-04T12:22:17;3.33;;;1.42;;
21175;SDS011;10746;50.178;8.186;2023-06-04T12:24:49;1.92;;;1.70;;
21175;SDS011;10746;50.178;8.186;2023-06-04T12:27:20;4.57;;;1.63;;
21175;SDS011;10746;50.178;8.186;2023-06-04T12:29:54;2.22;;;1.70;;
21175;SDS011;10746;50.178;8.186;2023-06-04T12:32:21;2.15;;;1.50;;
21175;SDS011;10746;50.178;8.186;2023-06-04T12:34:48;2.85;;;1.30;;
21175;SDS011;10746;50.178;8.186;2023-06-04T12:37:14;2.85;;;1.50;;
21175;SDS011;10746;50.178;8.186;2023-06-04T12:39:41;3.90;;;1.33;;
21175;SDS011;10746;50.178;8.186;2023-06-04T12:42:08;2.03;;;1.58;;
21175;SDS011;10746;50.178;8.186;2023-06-04T12:44:38;1.70;;;1.33;;
21175;SDS011;10746;50.178;8.186;2023-06-04T12:47:05;1.60;;;1.50;;
21175;SDS011;10746;50.178;8.186;2023-06-04T12:49:32;2.55;;;1.77;;
21175;SDS011;10746;50.178;8.186;2023-06-04T12:51:59;1.55;;;1.45;;
21175;SDS011;10746;50.178;8.186;2023-06-04T12:54:26;1.70;;;1.60;;
21175;SDS011;10746;50.178;8.186;2023-06-04T12:56:53;2.03;;;1.90;;
21175;SDS011;10746;50.178;8.186;2023-06-04T12:59:21;4.60;;;2.00;;
21175;SDS011;10746;50.178;8.186;2023-06-04T13:01:49;2.75;;;1.42;;
21175;SDS011;10746;50.178;8.186;2023-06-04T13:04:17;2.05;;;1.90;;
21175;SDS011;10746;50.178;8.186;2023-06-04T13:06:45;1.77;;;1.67;;
21175;SDS011;10746;50.178;8.186;2023-06-04T13:09:12;3.05;;;1.30;;
21175;SDS011;10746;50.178;8.186;2023-06-04T13:11:39;1.65;;;1.55;;
21175;SDS011;10746;50.178;8.186;2023-06-04T13:14:07;1.73;;;1.60;;
21175;SDS011;10746;50.178;8.186;2023-06-04T13:16:34;1.95;;;1.85;;
21175;SDS011;10746;50.178;8.186;2023-06-04T13:19:03;5.07;;;1.50;;
21175;SDS011;10746;50.178;8.186;2023-06-04T13:21:29;1.58;;;1.48;;
21175;SDS011;10746;50.178;8.186;2023-06-04T13:23:56;2.22;;;1.52;;
21175;SDS011;10746;50.178;8.186;2023-06-04T13:26:23;2.08;;;1.75;;
21175;SDS011;10746;50.178;8.186;2023-06-04T13:28:50;2.33;;;1.45;;
21175;SDS011;10746;50.178;8.186;2023-06-04T13:31:17;1.27;;;1.27;;
21175;SDS011;10746;50.178;8.186;2023-06-04T13:33:43;1.92;;;1.55;;
21175;SDS011;10746;50.178;8.186;2023-06-04T13:36:12;2.33;;;1.63;;
21175;SDS011;10746;50.178;8.186;2023-06-04T13:38:38;3.20;;;1.50;;
21175;SDS011;10746;50.178;8.186;2023-06-04T13:41:06;2.17;;;1.65;;
21175;SDS011;10746;50.178;8.186;2023-06-04T13:43:33;3.05;;;1.63;;
21175;SDS011;10746;50.178;8.186;2023-06-04T13:45:59;2.05;;;1.50;;
21175;SDS011;10746;50.178;8.186;2023-06-04T13:48:26;1.90;;;1.50;;
21175;SDS011;10746;50.178;8.186;2023-06-04T13:50:53;1.58;;;1.40;;
21175;SDS011;10746;50.178;8.186;2023-06-04T13:53:21;3.13;;;1.48;;
21175;SDS011;10746;50.178;8.186;2023-06-04T13:55:48;6.38;;;1.90;;
21175;SDS011;10746;50.178;8.186;2023-06-04T13:58:22;1.70;;;1.40;;
21175;SDS011;10746;50.178;8.186;2023-06-04T14:00:49;2.33;;;1.42;;
21175;SDS011;10746;50.178;8.186;2023-06-04T14:03:16;1.65;;;1.55;;
21175;SDS011;10746;50.178;8.186;2023-06-04T14:05:42;2.40;;;1.67;;
21175;SDS011;10746;50.178;8.186;2023-06-04T14:08:09;1.75;;;1.65;;
21175;SDS011;10746;50.178;8.186;2023-06-04T14:10:38;3.40;;;1.42;;
21175;SDS011;10746;50.178;8.186;2023-06-04T14:13:07;1.63;;;1.52;;
21175;SDS011;10746;50.178;8.186;2023-06-04T14:15:34;1.63;;;1.50;;
21175;SDS011;10746;50.178;8.186;2023-06-04T14:18:01;1.33;;;1.23;;
21175;SDS011;10746;50.178;8.186;2023-06-04T14:20:28;1.52;;;1.42;;
21175;SDS011;10746;50.178;8.186;2023-06-04T14:22:56;1.95;;;1.55;;
21175;SDS011;10746;50.178;8.186;2023-06-04T14:25:22;1.95;;;1.52;;
21175;SDS011;10746;50.178;8.186;2023-06-04T14:27:50;2.17;;;1.60;;
21175;SDS011;10746;50.178;8.186;2023-06-04T14:30:17;2.53;;;1.35;;
21175;SDS011;10746;50.178;8.186;2023-06-04T14:32:44;1.48;;;1.42;;
21175;SDS011;10746;50.178;8.186;2023-06-04T14:35:11;2.00;;;1.80;;
21175;SDS011;10746;50.178;8.186;2023-06-04T14:37:37;2.22;;;1.52;;
21175;SDS011;10746;50.178;8.186;2023-06-04T14:40:04;3.10;;;1.85;;
21175;SDS011;10746;50.178;8.186;2023-06-04T14:42:32;4.93;;;1.70;;
21175;SDS011;10746;50.178;8.186;2023-06-04T14:45:00;2.85;;;1.52;;
21175;SDS011;10746;50.178;8.186;2023-06-04T14:47:26;2.17;;;1.70;;
21175;SDS011;10746;50.178;8.186;2023-06-04T14:49:53;2.60;;;1.70;;
21175;SDS011;10746;50.178;8.186;2023-06-04T14:52:20;2.90;;;1.50;;
21175;SDS011;10746;50.178;8.186;2023-06-04T14:54:46;2.65;;;1.77;;